Etusivu
METAR-TAF:

METAR-TAF

Lentoasemat :

Matsuyama, Japani

Leveyspiiri: 33-49N, Pituuspiiri: 132-42E, korkeus merenpinnasta: 4 m

Tämänhetkinen sää

Tämä raportti tehtiin 48 minuuttia sitten, kello 00.00 UTC
Tuuli 19 kn lännestä
Lämpötila 13°C
Kosteus 77%
Ilmanpaine 1019 hPa
Näkyvyys 10 km tai enemmän
Muutamia pilviä 2500 ft:n korkeudessa
Hajanaisia pilviä 5000 ft:n korkeudessa

METAR: RJOM 200000Z 26019KT 9999 FEW025 SCT050 13/09 Q1019

Aika: 09:48 (00:48 UTC)

Sääennuste

Tämä raportti tehtiin 1 tunti ja 42 minuuttia sitten, kello 23.06 UTC
Ennuste voimassa 20. päivästä klo 00 UTC - 21. päivään klo 06 UTC
Tuuli 11 kn lännestä
Näkyvyys 10 km tai enemmän
Muutamia pilviä 1500 ft:n korkeudessa
Hajonneita pilviä 3500 ft:n korkeudessa
Tulossa
20. päivästä klo 12 UTC - 20. päivään klo 15 UTC
Tuuli 7 kn pohjoisesta/koillisesta

TAF: RJOM 192306Z 2000/2106 28011KT 9999 FEW015 BKN035 BECMG 2012/2015 03007KT

Säähavainnot ja -ennusteet yli 4000 lentoasemalta (METAR- ja TAF-raportit).

Käytössä olevat sääasemat on merkitty karttaan keltaisilla ja punaisilla pisteillä.

Aseta hiiri pisteen päälle nähdäksesi sääaseman nimen.

Klikkaa sitten nähdäksesi säähavainnot ja -ennusteet.

Kartan vaihtaminen: klikkaa mustalla rastilla varustettuja vihreitä pisteitä, niin voit zoomata sisään; viivalla varustettua vihreää pistettä, niin voit zoomata ulos tai vihreitä nuolia, niin pääset viereisille kartoille.


METAR-TAF: